1950 Tropical Cyclone NOT_NAMED (1950064S13146)


IBTrACS version v04r00. Visit IBTrACS website for data access.
Please direct all questions to the IBTrACS Q and A forum

Storm track - Intensity - Wind Radii - Intensity Data - Source Data - All data

Summary Information

Storm ID 1950064S13146
Start Mar 4 23Z
Landfall Mar 6 03Z, Mar 10 09Z, Mar 10 19Z
Max Intensity 45 kt (Mar 11 00Z), 992 mb (Mar 10 23Z)
End Mar 16 23Z
ATCF IDs ,SH181950
Track status Best track data.

Storm track plot

Map of storm track

Intensity plots

Map of storm track

Radial wind information

No radial wind information for this storm


Position and Intensity Table

BASIN ISO_TIME_________ NATURE LAT LON WMO PRES BOM PRES DS824 WIND DS824 PRES
degrees north degrees east mb mb kts mb
SP 1950-03-04 23:00:00 NR -12.95 146.25 1000 1000
SP 1950-03-05 00:00:00 TS -13.10 146.25 30 1000
SP 03:00:00 TS -13.56 146.35
SP 06:00:00 TS -14.01 146.43
SP 09:00:00 TS -14.45 146.47
SP 11:00:00 TS -14.72 146.47
SP 12:00:00 TS -14.85 146.46
SP 15:00:00 TS -15.26 146.43
SP 18:00:00 TS -15.61 146.33
SP 21:00:00 TS -15.87 146.13
SP 23:00:00 TS -16.00 145.93 1000 1000
SP 1950-03-06 00:00:00 TS -16.05 145.81 999 30 1000
SP 03:00:00 TS -16.15 145.40 998
SP 04:00:00 TS -16.16 145.24 998 998
SP 06:00:00 TS -16.16 144.90
SP 09:00:00 TS -16.11 144.37
SP 11:00:00 TS -16.05 144.01
SP 12:00:00 TS -16.00 143.83
SP 15:00:00 TS -15.84 143.31
SP 18:00:00 TS -15.70 142.82
SP 21:00:00 TS -15.68 142.37
SP 23:00:00 TS -15.76 142.14 996 996
SP 1950-03-07 00:00:00 TS -15.84 142.05 35 996
SP 03:00:00 TS -16.18 141.91
SP 05:00:00 TS -16.47 141.92
SP 06:00:00 TS -16.61 141.94
SP 09:00:00 TS -17.03 142.08
SP 11:00:00 TS -17.31 142.23
SP 12:00:00 TS -17.43 142.30
SP 15:00:00 TS -17.79 142.52
SP 18:00:00 TS -18.10 142.81
SP 21:00:00 TS -18.38 143.21
SP 23:00:00 TS -18.53 143.54 996 996
SP 1950-03-08 00:00:00 TS -18.59 143.71
SP 03:00:00 TS -18.74 144.29
SP 06:00:00 TS -18.82 144.93
SP 09:00:00 TS -18.85 145.57
SP 11:00:00 TS -18.84 145.99
SP 12:00:00 TS -18.82 146.19
SP 13:00:00 TS -18.78 146.39
SP 15:00:00 TS -18.68 146.79
SP 18:00:00 TS -18.53 147.39
SP 21:00:00 TS -18.43 148.00
SP 23:00:00 TS -18.44 148.41 1000 1000
SP 1950-03-09 00:00:00 TS -18.47 148.63 30 1000
SP 03:00:00 TS -18.67 149.28
SP 06:00:00 TS -19.01 149.90
SP 09:00:00 TS -19.48 150.52
SP 11:00:00 TS -19.87 150.88
SP 12:00:00 TS -20.09 151.03
SP 15:00:00 TS -20.85 151.37
SP 17:00:00 TS -21.37 151.49
SP 18:00:00 TS -21.60 151.52
SP 21:00:00 TS -22.19 151.50
SP 23:00:00 TS -22.46 151.39 996 996
SP 1950-03-10 00:00:00 TS -22.53 151.30
SP 03:00:00 TS -22.59 150.97
SP 06:00:00 TS -22.50 150.58
SP 07:00:00 TS -22.47 150.46
SP 08:00:00 TS -22.45 150.34
SP 09:00:00 TS -22.41 150.23
SP 11:00:00 TS -22.32 150.02
SP 12:00:00 TS -22.27 149.93
SP 15:00:00 TS -22.09 149.72
SP 18:00:00 TS -21.92 149.50
SP 19:00:00 TS -21.87 149.40
SP 21:00:00 TS -21.80 149.18
SP 23:00:00 TS -21.75 148.91 992 992
SP 1950-03-11 00:00:00 TS -21.71 148.75 45 992
SP 03:00:00 TS -21.62 148.21
SP 06:00:00 TS -21.57 147.61
SP 09:00:00 TS -21.53 147.00
SP 11:00:00 TS -21.56 146.58
SP 12:00:00 TS -21.61 146.36
SP 15:00:00 TS -21.91 145.67
SP 18:00:00 TS -22.25 144.95
SP 21:00:00 TS -22.51 144.32
SP 23:00:00 TS -22.61 143.95 1000 1000
SP 1950-03-12 00:00:00 TS -22.61 143.78
SP 03:00:00 TS -22.57 143.31
SP 06:00:00 TS -22.41 142.87
SP 09:00:00 TS -22.18 142.43
SP 11:00:00 TS -22.00 142.13
SP 12:00:00 TS -21.90 141.98
SP 15:00:00 TS -21.61 141.52
SP 18:00:00 TS -21.30 141.06
SP 21:00:00 TS -20.98 140.60
SP 23:00:00 TS -20.79 140.32
SP 1950-03-13 00:00:00 TS -20.71 140.20
SP 03:00:00 TS -20.48 139.92
SP 06:00:00 TS -20.32 139.70
SP 09:00:00 TS -20.22 139.46
SP 11:00:00 TS -20.20 139.30
SP 12:00:00 TS -20.20 139.20
SP 15:00:00 TS -20.22 138.86
SP 18:00:00 TS -20.28 138.50
SP 21:00:00 TS -20.34 138.17
SP 23:00:00 TS -20.39 137.99
SP 1950-03-14 00:00:00 TS -20.41 137.91
SP 03:00:00 TS -20.50 137.72
SP 06:00:00 TS -20.60 137.60
SP 09:00:00 TS -20.70 137.49
SP 11:00:00 TS -20.77 137.42
SP 12:00:00 TS -20.81 137.39
SP 15:00:00 TS -20.93 137.28
SP 18:00:00 TS -21.08 137.18
SP 21:00:00 TS -21.25 137.08
SP 23:00:00 TS -21.41 137.02
SP 1950-03-15 00:00:00 TS -21.50 136.99
SP 03:00:00 TS -21.86 136.88
SP 06:00:00 TS -22.32 136.80
SP 09:00:00 TS -22.84 136.77
SP 11:00:00 TS -23.21 136.79
SP 12:00:00 TS -23.39 136.81
SP 15:00:00 TS -23.89 136.92
SP 18:00:00 TS -24.40 137.10
SP 21:00:00 TS -24.95 137.29
SP 23:00:00 TS -25.31 137.42
SP 1950-03-16 00:00:00 TS -25.49 137.48
SP 03:00:00 TS -25.99 137.64
SP 06:00:00 TS -26.49 137.80
SP 09:00:00 TS -26.98 137.99
SP 11:00:00 TS -27.32 138.12
SP 12:00:00 TS -27.49 138.19
SP 15:00:00 TS -28.03 138.39
SP 18:00:00 TS -28.58 138.60
SP 21:00:00 NR -29.12 138.84
SP 23:00:00 NR -29.50 139.00

Source Information

Agency Information
USA bsh181950.txt
TOKYO
CMA
HKO
NEWDELHI
REUNION
BOM IDCKMSTM0S.csv:Line=1598:unnamed
NADI
WELLINGTON
DS824 aus_area.dat:174:NOT NAMED
TD9636 cons_worldwide_trop_cyclone_18710101-19891231-006:Line=3602
TD9635
NEUMANN
MLC

All available IBTrACS Data

SEASON BASIN SUBBASIN ISO_TIME_________ NATURE LAT LON WMO PRES WMO AGENCY DIST2LAND LANDFALL IFLAG USA AGENCY USA ATCF_ID USA LAT USA LON USA SSHS BOM LAT BOM LON BOM PRES BOM PRES_METHOD DS824 LAT DS824 LON DS824 STAGE DS824 WIND DS824 PRES TD9636 LAT TD9636 LON TD9636 STAGE STORM SPEED STORM DIR
Year degrees north degrees east mb km km degrees north degrees east 1 degrees north degrees east mb degrees north degrees east kts mb degrees north degrees east kts degrees
1950 SP EA 1950-03-04 23:00:00 NR -12.95 146.25 1000 bom 248 226 ______O___O___ -1 -13.00 146.40 1000 -12.90 146.10 7 9 182
1950 SP EA 1950-03-05 00:00:00 TS -13.10 146.25 226 196 O_____P__OP___ jtwc_sh SH181950 -13.10 146.10 -1 -13.14 146.44 -13.10 146.40 TC 30 1000 -13.05 146.12 7 9 172
1950 SP EA 03:00:00 TS -13.56 146.35 187 163 P_____P__PP___ SH181950 -13.56 146.22 -1 -13.55 146.55 -13.63 146.52 TC -13.52 146.20 7 9 169
1950 SP EA 06:00:00 TS -14.01 146.43 163 145 O_____P__PP___ jtwc_sh SH181950 -14.00 146.30 -1 -13.96 146.64 -14.15 146.62 TC -13.97 146.25 7 9 173
1950 SP EA 09:00:00 TS -14.45 146.47 145 133 P_____P__PP___ SH181950 -14.41 146.32 -1 -14.36 146.70 -14.64 146.69 TC -14.41 146.29 7 9 176
1950 SP EA 11:00:00 TS -14.72 146.47 133 130 P_____P__PO___ SH181950 -14.67 146.31 -1 -14.62 146.71 -14.94 146.71 TC -14.70 146.30 7 8 0
1950 SP EA 12:00:00 TS -14.85 146.46 126 107 O_____P__PP___ jtwc_sh SH181950 -14.80 146.30 -1 -14.75 146.71 -15.08 146.71 TC -14.84 146.30 7 8 185
1950 SP EA 15:00:00 TS -15.26 146.43 107 102 P_____P__PP___ SH181950 -15.23 146.29 -1 -15.12 146.66 -15.47 146.67 TC -15.24 146.26 7 8 190
1950 SP EA 18:00:00 TS -15.61 146.33 102 67 O_____P__PP___ jtwc_sh SH181950 -15.60 146.20 -1 -15.47 146.53 -15.77 146.55 TC -15.59 146.16 7 7 206
1950 SP EA 21:00:00 TS -15.87 146.13 67 44 P_____P__PP___ SH181950 -15.85 146.01 -1 -15.80 146.31 -15.99 146.33 TC -15.86 145.98 7 7 224
1950 SP EA 23:00:00 TS -16.00 145.93 1000 bom 44 33 P_____O__PO___ SH181950 -15.96 145.82 -1 -16.00 146.10 1000 -16.08 146.12 TC -16.00 145.80 7 7 239
1950 SP EA 1950-03-06 00:00:00 TS -16.05 145.81 33 0 O_____P__OP___ jtwc_sh SH181950 -16.00 145.70 -1 -16.10 145.98 999 -16.10 146.00 TC 30 1000 -16.05 145.69 7 8 254
1950 SP EA 03:00:00 TS -16.15 145.40 0 0 P_____P__PP___ SH181950 -16.08 145.29 -1 -16.34 145.55 998 -16.10 145.55 TC -16.15 145.31 7 8 258
1950 SP EA 04:00:00 TS -16.16 145.24 998 bom 0 0 P_____O__PP___ SH181950 -16.09 145.13 -1 -16.40 145.40 998 -16.08 145.38 TC -16.16 145.16 7 9 269
1950 SP EA 06:00:00 TS -16.16 144.90 0 0 O_____P__PP___ jtwc_sh SH181950 -16.10 144.80 -1 -16.41 145.06 -16.01 145.01 TC -16.17 144.84 7 10 274
1950 SP EA 09:00:00 TS -16.11 144.37 0 0 P_____P__PP___ SH181950 -16.13 144.30 -1 -16.27 144.50 -15.87 144.42 TC -16.14 144.34 7 10 278
1950 SP EA 11:00:00 TS -16.05 144.01 0 0 P_____P__PO___ SH181950 -16.12 143.96 -1 -16.11 144.11 -15.77 144.02 TC -16.10 144.00 7 11 281
1950 SP EA 12:00:00 TS -16.00 143.83 0 0 O_____P__PP___ jtwc_sh SH181950 -16.10 143.80 -1 -16.02 143.91 -15.73 143.82 TC -16.07 143.82 7 11 287
1950 SP EA 15:00:00 TS -15.84 143.31 0 0 P_____P__PP___ SH181950 -15.94 143.34 -1 -15.75 143.34 -15.61 143.25 TC -15.93 143.26 7 10 287
1950 SP EA 18:00:00 TS -15.70 142.82 0 0 O_____P__PP___ jtwc_sh SH181950 -15.80 142.90 -1 -15.55 142.83 -15.55 142.75 TC -15.81 142.73 7 9 280
1950 SP EA 21:00:00 TS -15.68 142.37 0 0 P_____P__PP___ SH181950 -15.78 142.39 -1 -15.50 142.41 -15.61 142.35 TC -15.76 142.30 7 8 265
1950 SP EA 23:00:00 TS -15.76 142.14 996 bom 0 0 P_____O__PO___ SH181950 -15.84 142.10 -1 -15.60 142.20 996 -15.72 142.17 TC -15.80 142.10 7 7 243
1950 SP EA 1950-03-07 00:00:00 TS -15.84 142.05 0 0 O_____P__OP___ jtwc_sh SH181950 -15.90 142.00 -1 -15.72 142.12 -15.80 142.10 TC 35 996 -15.87 142.03 7 7 206
1950 SP EA 03:00:00 TS -16.18 141.91 0 0 P_____P__PP___ SH181950 -16.20 141.85 -1 -16.17 141.94 -16.18 141.99 TC -16.18 141.95 7 8 192
1950 SP EA 05:00:00 TS -16.47 141.92 bom 0 0 P_____O__PP___ SH181950 -16.46 141.86 -1 -16.50 141.90 -16.46 141.99 TC -16.44 141.97 7 9 0
1950 SP EA 06:00:00 TS -16.61 141.94 0 0 O_____P__OP___ jtwc_sh SH181950 -16.60 141.90 -1 -16.66 141.89 -16.60 142.00 TC -16.59 142.00 7 9 165
1950 SP EA 09:00:00 TS -17.03 142.08 0 0 P_____P__PP___ SH181950 -17.01 142.11 -1 -17.13 141.93 -16.99 142.08 TC -17.03 142.15 7 9 158
1950 SP EA 11:00:00 TS -17.31 142.23 0 0 P_____P__PO___ SH181950 -17.28 142.31 -1 -17.45 142.02 -17.23 142.19 TC -17.30 142.30 7 9 152
1950 SP EA 12:00:00 TS -17.43 142.30 0 0 O_____P__PP___ jtwc_sh SH181950 -17.40 142.40 -1 -17.60 142.09 -17.35 142.26 TC -17.41 142.35 7 8 150
1950 SP EA 15:00:00 TS -17.79 142.52 0 0 P_____P__PP___ SH181950 -17.72 142.57 -1 -18.04 142.36 -17.70 142.54 TC -17.74 142.55 7 8 144
1950 SP EA 18:00:00 TS -18.10 142.81 0 0 O_____P__PP___ jtwc_sh SH181950 -18.00 142.80 -1 -18.43 142.72 -18.02 142.89 TC -18.03 142.83 7 9 132
1950 SP EA 21:00:00 TS -18.38 143.21 0 0 P_____P__PP___ SH181950 -18.28 143.18 -1 -18.74 143.16 -18.30 143.33 TC -18.27 143.20 7 10 122
1950 SP EA 23:00:00 TS -18.53 143.54 996 bom 0 0 P_____O__PO___ SH181950 -18.44 143.51 -1 -18.90 143.50 996 -18.47 143.65 TC -18.40 143.50 7 10 115
1950 SP EA 1950-03-08 00:00:00 TS -18.59 143.71 0 0 O_____P__PP___ jtwc_sh SH181950 -18.50 143.70 -1 -18.96 143.66 -18.54 143.82 TC -18.46 143.67 7 11 106
1950 SP EA 03:00:00 TS -18.74 144.29 0 0 P_____P__PP___ SH181950 -18.64 144.33 -1 -19.08 144.21 -18.74 144.36 TC -18.60 144.24 7 12 101
1950 SP EA 06:00:00 TS -18.82 144.93 0 0 O_____P__PP___ jtwc_sh SH181950 -18.70 145.00 -1 -19.12 144.83 -18.89 144.95 TC -18.68 144.89 7 12 95
1950 SP EA 09:00:00 TS -18.85 145.57 0 0 P_____P__PP___ SH181950 -18.74 145.61 -1 -19.10 145.49 -18.97 145.56 TC -18.71 145.56 7 12 91
1950 SP EA 11:00:00 TS -18.84 145.99 0 0 P_____P__PO___ SH181950 -18.72 146.01 -1 -19.06 145.95 -19.00 145.99 TC -18.70 146.00 7 12 87
1950 SP EA 12:00:00 TS -18.82 146.19 0 0 O_____P__OP___ jtwc_sh SH181950 -18.70 146.20 -1 -19.03 146.17 -19.00 146.20 TC -18.66 146.20 7 12 81
1950 SP EA 13:00:00 TS -18.78 146.39 bom 10 10 P_____O__PP___ SH181950 -18.66 146.39 -1 -19.00 146.40 -18.97 146.41 TC -18.62 146.39 7 12 76
1950 SP EA 15:00:00 TS -18.68 146.79 52 52 P_____P__PP___ SH181950 -18.55 146.75 -1 -18.91 146.84 -18.89 146.83 TC -18.51 146.78 7 12 75
1950 SP EA 18:00:00 TS -18.53 147.39 98 98 O_____P__PP___ jtwc_sh SH181950 -18.40 147.30 -1 -18.75 147.51 -18.74 147.49 TC -18.34 147.34 7 12 78
1950 SP EA 21:00:00 TS -18.43 148.00 128 128 P_____P__PP___ SH181950 -18.32 147.89 -1 -18.63 148.17 -18.62 148.16 TC -18.26 147.91 7 12 85
1950 SP EA 23:00:00 TS -18.44 148.41 1000 bom 153 153 P_____O__PO___ SH181950 -18.35 148.29 -1 -18.60 148.60 1000 -18.59 148.59 TC -18.30 148.30 7 12 94
1950 SP EA 1950-03-09 00:00:00 TS -18.47 148.63 160 160 O_____P__OP___ jtwc_sh SH181950 -18.40 148.50 -1 -18.60 148.81 -18.60 148.80 TC 30 1000 -18.36 148.53 7 13 106
1950 SP EA 03:00:00 TS -18.67 149.28 179 179 P_____P__PP___ SH181950 -18.67 149.15 -1 -18.67 149.43 -18.68 149.42 TC -18.65 149.23 7 13 114
1950 SP EA 06:00:00 TS -19.01 149.90 bom 185 183 O_____O__OP___ jtwc_sh SH181950 -19.10 149.80 -1 -18.90 150.00 -18.90 150.00 TC -19.07 149.91 7 14 125
1950 SP EA 09:00:00 TS -19.48 150.52 198 198 P_____P__PP___ SH181950 -19.58 150.47 -1 -19.30 150.59 -19.35 150.58 TC -19.61 150.50 7 15 133
1950 SP EA 11:00:00 TS -19.87 150.88 219 218 P_____P__PO___ SH181950 -19.97 150.85 -1 -19.67 150.95 -19.74 150.93 TC -20.00 150.80 7 16 142
1950 SP EA 12:00:00 TS -20.09 151.03 218 189 O_____P__PP___ jtwc_sh SH181950 -20.20 151.00 -1 -19.87 151.11 -19.95 151.09 TC -20.23 150.93 7 16 155
1950 SP EA 15:00:00 TS -20.85 151.37 182 148 P_____P__PP___ SH181950 -21.07 151.31 -1 -20.53 151.52 -20.61 151.49 TC -20.99 151.20 7 16 161
1950 SP EA 17:00:00 TS -21.37 151.49 bom 138 121 P_____O__PP___ SH181950 -21.65 151.39 -1 -21.00 151.70 -21.02 151.65 TC -21.51 151.29 7 15 169
1950 SP EA 18:00:00 TS -21.60 151.52 121 79 O_____P__OP___ jtwc_sh SH181950 -21.90 151.40 -1 -21.26 151.77 -21.20 151.70 TC -21.75 151.32 7 12 178
1950 SP EA 21:00:00 TS -22.19 151.50 79 62 P_____P__PP___ SH181950 -22.44 151.33 -1 -22.02 151.87 -21.65 151.67 TC -22.40 151.29 7 10 188
1950 SP EA 23:00:00 TS -22.46 151.39 996 bom 61 51 P_____O__PO___ SH181950 -22.65 151.19 -1 -22.40 151.80 996 -21.90 151.55 TC -22.70 151.20 7 8 208
1950 SP EA 1950-03-10 00:00:00 TS -22.53 151.30 51 20 O_____P__PP___ jtwc_sh SH181950 -22.70 151.10 -1 -22.49 151.71 -22.01 151.46 TC -22.77 151.14 7 6 251
1950 SP EA 03:00:00 TS -22.59 150.97 20 0 P_____P__PP___ SH181950 -22.68 150.78 -1 -22.53 151.29 -22.27 151.15 TC -22.82 150.85 7 7 273
1950 SP EA 06:00:00 TS -22.50 150.58 10 10 O_____P__OP___ jtwc_sh SH181950 -22.50 150.40 -1 -22.42 150.82 -22.40 150.80 TC -22.69 150.47 7 7 284
1950 SP EA 07:00:00 TS -22.47 150.46 bom 11 10 P_____O__PP___ SH181950 -22.47 150.27 -1 -22.40 150.70 -22.41 150.72 TC -22.62 150.33 7 7 284
1950 SP EA 08:00:00 TS -22.45 150.34 bom 10 0 P_____O__PP___ SH181950 -22.44 150.14 -1 -22.40 150.60 -22.40 150.64 TC -22.54 150.19 7 7 287
1950 SP EA 09:00:00 TS -22.41 150.23 0 0 P_____P__PP___ SH181950 -22.42 150.02 -1 -22.39 150.50 -22.37 150.55 TC -22.46 150.06 7 7 293
1950 SP EA 11:00:00 TS -22.32 150.02 0 0 P_____P__PO___ SH181950 -22.34 149.79 -1 -22.32 150.32 -22.29 150.38 TC -22.30 149.80 7 6 296
1950 SP EA 12:00:00 TS -22.27 149.93 0 0 O_____P__PP___ jtwc_sh SH181950 -22.30 149.70 -1 -22.28 150.23 -22.23 150.29 TC -22.25 149.72 7 5 310
1950 SP EA 15:00:00 TS -22.09 149.72 20 10 P_____P__PP___ SH181950 -22.10 149.56 -1 -22.11 149.96 -22.05 150.01 TC -22.10 149.51 7 5 312
1950 SP EA 18:00:00 TS -21.92 149.50 10 0 O_____P__OP___ jtwc_sh SH181950 -21.90 149.40 -1 -21.94 149.69 -21.90 149.70 TC -21.94 149.30 7 5 307
1950 SP EA 19:00:00 TS -21.87 149.40 bom 0 0 P_____O__PP___ SH181950 -21.86 149.31 -1 -21.90 149.60 -21.87 149.59 TC -21.89 149.22 7 6 291
1950 SP EA 21:00:00 TS -21.80 149.18 0 0 P_____P__PP___ SH181950 -21.78 149.07 -1 -21.84 149.41 -21.83 149.36 TC -21.79 149.04 7 7 285
1950 SP EA 23:00:00 TS -21.75 148.91 992 bom 0 0 P_____O__PO___ SH181950 -21.73 148.77 -1 -21.80 149.20 992 4 -21.81 149.12 TC -21.70 148.80 7 8 282
1950 SP EA 1950-03-11 00:00:00 TS -21.71 148.75 0 0 O_____P__OP___ jtwc_sh SH181950 -21.70 148.60 -1 -21.79 149.08 -21.80 149.00 TC 45 992 -21.65 148.65 7 10 281
1950 SP EA 03:00:00 TS -21.62 148.21 0 0 P_____P___P___ SH181950 -21.59 148.03 -1 -21.81 148.65 TC -21.50 148.11 7 11 278
1950 SP EA 06:00:00 TS -21.57 147.61 0 0 O_____P___P___ jtwc_sh SH181950 -21.50 147.40 -1 -21.88 148.13 -21.39 147.50 7 11 275
1950 SP EA 09:00:00 TS -21.53 147.00 0 0 P_____P___P___ SH181950 -21.37 146.81 -1 -22.00 147.53 -21.36 146.84 7 11 271
1950 SP EA 11:00:00 TS -21.56 146.58 0 0 P_____P___O___ SH181950 -21.36 146.41 -1 -22.10 147.09 -21.40 146.40 7 12 262
1950 SP EA 12:00:00 TS -21.61 146.36 0 0 O_____P___P___ jtwc_sh SH181950 -21.40 146.20 -1 -22.15 146.87 -21.47 146.19 7 14 247
1950 SP EA 15:00:00 TS -21.91 145.67 0 0 P_____P___P___ SH181950 -21.76 145.49 -1 -22.34 146.15 -21.78 145.54 7 15 244
1950 SP EA 18:00:00 TS -22.25 144.95 0 0 O_____P___P___ jtwc_sh SH181950 -22.20 144.80 -1 -22.54 145.40 -22.14 144.90 7 14 244
1950 SP EA 21:00:00 TS -22.51 144.32 0 0 P_____P___P___ SH181950 -22.47 144.26 -1 -22.76 144.62 -22.46 144.28 7 12 249
1950 SP EA 23:00:00 TS -22.61 143.95 1000 bom 0 0 P_____O___O___ SH181950 -22.58 143.95 -1 -22.90 144.10 1000 -22.60 143.90 7 10 259
1950 SP EA 1950-03-12 00:00:00 TS -22.61 143.78 0 0 O_________P___ jtwc_sh SH181950 -22.60 143.80 -1 -22.62 143.73 7 9 274
1950 SP EA 03:00:00 TS -22.57 143.31 0 0 P_________P___ SH181950 -22.57 143.34 -1 -22.57 143.24 7 9 283
1950 SP EA 06:00:00 TS -22.41 142.87 0 0 O_________P___ jtwc_sh SH181950 -22.40 142.90 -1 -22.42 142.80 7 9 295
1950 SP EA 09:00:00 TS -22.18 142.43 0 0 P_________P___ SH181950 -22.18 142.45 -1 -22.18 142.38 7 10 301
1950 SP EA 11:00:00 TS -22.00 142.13 0 0 P_________O___ SH181950 -22.00 142.15 -1 -22.00 142.10 7 10 304
1950 SP EA 12:00:00 TS -21.90 141.98 0 0 O_________P___ jtwc_sh SH181950 -21.90 142.00 -1 -21.91 141.94 7 10 304
1950 SP EA 15:00:00 TS -21.61 141.52 0 0 P_________P___ SH181950 -21.61 141.55 -1 -21.62 141.46 7 10 305
1950 SP EA 18:00:00 TS -21.30 141.06 0 0 O_________P___ jtwc_sh SH181950 -21.30 141.10 -1 -21.29 140.98 7 11 306
1950 SP EA 21:00:00 TS -20.98 140.60 0 0 P_________P___ SH181950 -20.99 140.62 -1 -20.98 140.55 7 10 306
1950 SP EA 23:00:00 TS -20.79 140.32 0 0 P_________O___ SH181950 -20.79 140.33 -1 -20.80 140.30 7 9 307
1950 SP EA 1950-03-13 00:00:00 TS -20.71 140.20 0 0 O_________P___ jtwc_sh SH181950 -20.70 140.20 -1 -20.72 140.19 7 7 310
1950 SP EA 03:00:00 TS -20.48 139.92 0 0 P_________P___ SH181950 -20.46 139.92 -1 -20.51 139.92 7 6 310
1950 SP EA 06:00:00 TS -20.32 139.70 0 0 O_________P___ jtwc_sh SH181950 -20.30 139.70 -1 -20.35 139.69 7 5 301
1950 SP EA 09:00:00 TS -20.22 139.46 0 0 P_________P___ SH181950 -20.21 139.47 -1 -20.24 139.46 7 5 287
1950 SP EA 11:00:00 TS -20.20 139.30 0 0 P_________O___ SH181950 -20.20 139.29 -1 -20.20 139.30 7 5 276
1950 SP EA 12:00:00 TS -20.20 139.20 0 0 O_________P___ jtwc_sh SH181950 -20.20 139.20 -1 -20.19 139.19 7 6 267
1950 SP EA 15:00:00 TS -20.22 138.86 0 0 P_________P___ SH181950 -20.24 138.86 -1 -20.19 138.85 7 7 262
1950 SP EA 18:00:00 TS -20.28 138.50 0 0 O_________P___ jtwc_sh SH181950 -20.30 138.50 -1 -20.25 138.51 7 7 259
1950 SP EA 21:00:00 TS -20.34 138.17 0 0 P_________P___ SH181950 -20.34 138.17 -1 -20.33 138.18 7 6 258
1950 SP EA 23:00:00 TS -20.39 137.99 0 0 P_________O___ SH181950 -20.38 137.98 -1 -20.40 138.00 7 5 255
1950 SP EA 1950-03-14 00:00:00 TS -20.41 137.91 0 0 O_________P___ jtwc_sh SH181950 -20.40 137.90 -1 -20.42 137.92 7 4 246
1950 SP EA 03:00:00 TS -20.50 137.72 0 0 P_________P___ SH181950 -20.49 137.72 -1 -20.51 137.73 7 4 237
1950 SP EA 06:00:00 TS -20.60 137.60 0 0 O_________P___ jtwc_sh SH181950 -20.60 137.60 -1 -20.60 137.59 7 3 228
1950 SP EA 09:00:00 TS -20.70 137.49 0 0 P_________P___ SH181950 -20.69 137.49 -1 -20.72 137.47 7 3 223
1950 SP EA 11:00:00 TS -20.77 137.42 0 0 P_________O___ SH181950 -20.76 137.43 -1 -20.80 137.40 7 3 220
1950 SP EA 12:00:00 TS -20.81 137.39 0 0 O_________P___ jtwc_sh SH181950 -20.80 137.40 -1 -20.83 137.36 7 3 219
1950 SP EA 15:00:00 TS -20.93 137.28 0 0 P_________P___ SH181950 -20.93 137.30 -1 -20.92 137.24 7 3 216
1950 SP EA 18:00:00 TS -21.08 137.18 0 0 O_________P___ jtwc_sh SH181950 -21.10 137.20 -1 -21.04 137.14 7 4 210
1950 SP EA 21:00:00 TS -21.25 137.08 0 0 P_________P___ SH181950 -21.26 137.10 -1 -21.23 137.05 7 4 204
1950 SP EA 23:00:00 TS -21.41 137.02 0 0 P_________O___ SH181950 -21.41 137.03 -1 -21.40 137.00 7 5 199
1950 SP EA 1950-03-15 00:00:00 TS -21.50 136.99 0 0 O_________P___ jtwc_sh SH181950 -21.50 137.00 -1 -21.51 136.97 7 7 196
1950 SP EA 03:00:00 TS -21.86 136.88 0 0 P_________P___ SH181950 -21.85 136.89 -1 -21.89 136.88 7 8 192
1950 SP EA 06:00:00 TS -22.32 136.80 0 0 O_________P___ jtwc_sh SH181950 -22.30 136.80 -1 -22.35 136.81 7 10 186
1950 SP EA 09:00:00 TS -22.84 136.77 0 0 P_________P___ SH181950 -22.83 136.76 -1 -22.85 136.78 7 11 181
1950 SP EA 11:00:00 TS -23.21 136.79 0 0 P_________O___ SH181950 -23.21 136.78 -1 -23.20 136.80 7 11 176
1950 SP EA 12:00:00 TS -23.39 136.81 0 0 O_________P___ jtwc_sh SH181950 -23.40 136.80 -1 -23.37 136.82 7 10 170
1950 SP EA 15:00:00 TS -23.89 136.92 0 0 P_________P___ SH181950 -23.90 136.92 -1 -23.88 136.93 7 11 165
1950 SP EA 18:00:00 TS -24.40 137.10 0 0 O_________P___ jtwc_sh SH181950 -24.40 137.10 -1 -24.41 137.09 7 11 162
1950 SP EA 21:00:00 TS -24.95 137.29 0 0 P_________P___ SH181950 -24.95 137.30 -1 -24.95 137.27 7 12 162
1950 SP EA 23:00:00 TS -25.31 137.42 0 0 P_________O___ SH181950 -25.32 137.44 -1 -25.30 137.40 7 11 162
1950 SP EA 1950-03-16 00:00:00 TS -25.49 137.48 0 0 O_________P___ jtwc_sh SH181950 -25.50 137.50 -1 -25.47 137.45 7 11 164
1950 SP EA 03:00:00 TS -25.99 137.64 0 0 P_________P___ SH181950 -26.01 137.65 -1 -25.96 137.62 7 10 164
1950 SP EA 06:00:00 TS -26.49 137.80 0 0 O_________P___ jtwc_sh SH181950 -26.50 137.80 -1 -26.46 137.79 7 10 163
1950 SP EA 09:00:00 TS -26.98 137.99 0 0 P_________P___ SH181950 -26.99 137.99 -1 -26.96 137.97 7 11 161
1950 SP EA 11:00:00 TS -27.32 138.12 0 0 P_________O___ SH181950 -27.33 138.13 -1 -27.30 138.10 7 11 161
1950 SP EA 12:00:00 TS -27.49 138.19 0 0 O_________P___ jtwc_sh SH181950 -27.50 138.20 -1 -27.47 138.17 7 11 161
1950 SP EA 15:00:00 TS -28.03 138.39 0 0 P_________P___ SH181950 -28.04 138.40 -1 -28.01 138.38 7 12 161
1950 SP EA 18:00:00 TS -28.58 138.60 0 0 O_________P___ jtwc_sh SH181950 -28.60 138.60 -1 -28.56 138.61 7 12 160
1950 SP EA 21:00:00 NR -29.12 138.84 0 0 __________P___ SH181950 -1 -29.12 138.84 7 12 159
1950 SP EA 23:00:00 NR -29.50 139.00 0 __________O___ SH181950 -1 -29.50 139.00 7 12 160